sensor_id;sensor_type;location;lat;lon;timestamp;temperature;humidity
4097;DHT22;2062;50.694;7.246;2022-08-04T00:02:10;28.30;37.50
4097;DHT22;2062;50.694;7.246;2022-08-04T00:04:43;28.30;37.50
4097;DHT22;2062;50.694;7.246;2022-08-04T00:07:15;28.30;37.50
4097;DHT22;2062;50.694;7.246;2022-08-04T00:09:48;28.30;37.50
4097;DHT22;2062;50.694;7.246;2022-08-04T00:12:20;28.30;37.40
4097;DHT22;2062;50.694;7.246;2022-08-04T00:14:49;28.30;37.40
4097;DHT22;2062;50.694;7.246;2022-08-04T00:17:19;28.30;37.30
4097;DHT22;2062;50.694;7.246;2022-08-04T00:19:48;28.20;37.20
4097;DHT22;2062;50.694;7.246;2022-08-04T00:22:21;28.20;37.30
4097;DHT22;2062;50.694;7.246;2022-08-04T00:24:49;28.30;37.20
4097;DHT22;2062;50.694;7.246;2022-08-04T00:27:17;28.20;37.30
4097;DHT22;2062;50.694;7.246;2022-08-04T00:29:46;28.20;37.30
4097;DHT22;2062;50.694;7.246;2022-08-04T00:32:13;28.20;37.30
4097;DHT22;2062;50.694;7.246;2022-08-04T00:34:40;28.20;37.30
4097;DHT22;2062;50.694;7.246;2022-08-04T00:37:08;28.20;37.40
4097;DHT22;2062;50.694;7.246;2022-08-04T00:39:35;28.20;37.30
4097;DHT22;2062;50.694;7.246;2022-08-04T00:42:36;28.20;37.30
4097;DHT22;2062;50.694;7.246;2022-08-04T00:45:19;28.20;37.30
4097;DHT22;2062;50.694;7.246;2022-08-04T00:48:01;28.20;37.30
4097;DHT22;2062;50.694;7.246;2022-08-04T00:50:38;28.20;37.40
4097;DHT22;2062;50.694;7.246;2022-08-04T00:53:15;28.20;37.40
4097;DHT22;2062;50.694;7.246;2022-08-04T00:56:14;28.20;37.40
4097;DHT22;2062;50.694;7.246;2022-08-04T00:58:58;28.20;37.30
4097;DHT22;2062;50.694;7.246;2022-08-04T01:01:41;28.20;37.40
4097;DHT22;2062;50.694;7.246;2022-08-04T01:04:15;28.20;37.30
4097;DHT22;2062;50.694;7.246;2022-08-04T01:07:04;28.20;37.30
4097;DHT22;2062;50.694;7.246;2022-08-04T01:09:44;28.20;37.30
4097;DHT22;2062;50.694;7.246;2022-08-04T01:12:39;28.20;37.30
4097;DHT22;2062;50.694;7.246;2022-08-04T01:15:17;28.20;37.30
4097;DHT22;2062;50.694;7.246;2022-08-04T01:17:56;28.20;37.30
4097;DHT22;2062;50.694;7.246;2022-08-04T01:20:25;28.20;37.30
4097;DHT22;2062;50.694;7.246;2022-08-04T01:23:34;28.20;36.60
4097;DHT22;2062;50.694;7.246;2022-08-04T01:26:39;28.20;37.30
4097;DHT22;2062;50.694;7.246;2022-08-04T01:29:10;28.20;37.20
4097;DHT22;2062;50.694;7.246;2022-08-04T01:31:47;28.20;37.20
4097;DHT22;2062;50.694;7.246;2022-08-04T01:34:17;28.20;37.20
4097;DHT22;2062;50.694;7.246;2022-08-04T01:36:57;28.20;37.20
4097;DHT22;2062;50.694;7.246;2022-08-04T01:39:33;28.10;37.20
4097;DHT22;2062;50.694;7.246;2022-08-04T01:42:07;28.10;37.10
4097;DHT22;2062;50.694;7.246;2022-08-04T01:44:37;28.10;37.00
4097;DHT22;2062;50.694;7.246;2022-08-04T01:47:06;28.10;37.00
4097;DHT22;2062;50.694;7.246;2022-08-04T01:49:33;28.10;36.90
4097;DHT22;2062;50.694;7.246;2022-08-04T01:52:02;28.10;36.80
4097;DHT22;2062;50.694;7.246;2022-08-04T01:54:29;28.10;36.90
4097;DHT22;2062;50.694;7.246;2022-08-04T01:56:57;28.10;36.80
4097;DHT22;2062;50.694;7.246;2022-08-04T01:59:27;28.10;36.90
4097;DHT22;2062;50.694;7.246;2022-08-04T02:01:57;28.10;36.90
4097;DHT22;2062;50.694;7.246;2022-08-04T02:04:24;28.10;37.00
4097;DHT22;2062;50.694;7.246;2022-08-04T02:07:03;28.10;37.00
4097;DHT22;2062;50.694;7.246;2022-08-04T02:09:38;28.10;37.00
4097;DHT22;2062;50.694;7.246;2022-08-04T02:12:12;28.10;37.00
4097;DHT22;2062;50.694;7.246;2022-08-04T02:14:46;28.10;37.00
4097;DHT22;2062;50.694;7.246;2022-08-04T02:17:23;28.10;37.00
4097;DHT22;2062;50.694;7.246;2022-08-04T02:20:14;28.10;37.00
4097;DHT22;2062;50.694;7.246;2022-08-04T02:22:56;28.10;37.70
4097;DHT22;2062;50.694;7.246;2022-08-04T02:25:26;28.10;37.00
4097;DHT22;2062;50.694;7.246;2022-08-04T02:27:59;28.10;37.00
4097;DHT22;2062;50.694;7.246;2022-08-04T02:30:33;28.10;37.00
4097;DHT22;2062;50.694;7.246;2022-08-04T02:33:06;28.10;37.00
4097;DHT22;2062;50.694;7.246;2022-08-04T02:35:35;28.10;37.00
4097;DHT22;2062;50.694;7.246;2022-08-04T02:41:39;28.10;37.00
4097;DHT22;2062;50.694;7.246;2022-08-04T02:44:08;28.10;37.00
4097;DHT22;2062;50.694;7.246;2022-08-04T02:46:36;28.10;37.00
4097;DHT22;2062;50.694;7.246;2022-08-04T02:49:06;28.10;37.60
4097;DHT22;2062;50.694;7.246;2022-08-04T02:51:35;28.10;36.90
4097;DHT22;2062;50.694;7.246;2022-08-04T02:54:03;28.10;36.90
4097;DHT22;2062;50.694;7.246;2022-08-04T02:56:32;28.10;36.90
4097;DHT22;2062;50.694;7.246;2022-08-04T02:59:00;28.10;36.90
4097;DHT22;2062;50.694;7.246;2022-08-04T03:01:28;28.10;36.90
4097;DHT22;2062;50.694;7.246;2022-08-04T03:10:25;28.10;36.90
4097;DHT22;2062;50.694;7.246;2022-08-04T03:13:33;28.10;37.00
4097;DHT22;2062;50.694;7.246;2022-08-04T03:16:32;28.10;37.00
4097;DHT22;2062;50.694;7.246;2022-08-04T03:19:27;28.10;37.00
4097;DHT22;2062;50.694;7.246;2022-08-04T03:22:22;28.10;37.00
4097;DHT22;2062;50.694;7.246;2022-08-04T03:25:28;28.00;37.00
4097;DHT22;2062;50.694;7.246;2022-08-04T03:28:31;28.00;37.00
4097;DHT22;2062;50.694;7.246;2022-08-04T03:31:17;28.00;37.00
4097;DHT22;2062;50.694;7.246;2022-08-04T03:34:03;28.00;37.00
4097;DHT22;2062;50.694;7.246;2022-08-04T03:37:02;28.00;37.00
4097;DHT22;2062;50.694;7.246;2022-08-04T03:39:59;28.00;37.00
4097;DHT22;2062;50.694;7.246;2022-08-04T03:42:43;28.10;37.00
4097;DHT22;2062;50.694;7.246;2022-08-04T03:45:44;28.00;37.00
4097;DHT22;2062;50.694;7.246;2022-08-04T03:48:44;28.00;37.10
4097;DHT22;2062;50.694;7.246;2022-08-04T03:51:23;28.00;37.10
4097;DHT22;2062;50.694;7.246;2022-08-04T03:54:36;28.10;37.00
4097;DHT22;2062;50.694;7.246;2022-08-04T04:00:17;28.00;37.00
4097;DHT22;2062;50.694;7.246;2022-08-04T04:03:14;28.00;37.00
4097;DHT22;2062;50.694;7.246;2022-08-04T04:12:25;28.00;36.90
4097;DHT22;2062;50.694;7.246;2022-08-04T04:15:07;28.00;36.90
4097;DHT22;2062;50.694;7.246;2022-08-04T04:18:01;28.00;36.90
4097;DHT22;2062;50.694;7.246;2022-08-04T04:20:52;28.00;36.90
4097;DHT22;2062;50.694;7.246;2022-08-04T04:23:29;27.90;36.50
4097;DHT22;2062;50.694;7.246;2022-08-04T04:26:06;27.90;36.50
4097;DHT22;2062;50.694;7.246;2022-08-04T04:29:18;28.00;36.90
4097;DHT22;2062;50.694;7.246;2022-08-04T04:32:02;27.90;36.50
4097;DHT22;2062;50.694;7.246;2022-08-04T04:34:48;27.90;37.10
4097;DHT22;2062;50.694;7.246;2022-08-04T04:37:35;27.90;36.50
4097;DHT22;2062;50.694;7.246;2022-08-04T04:40:19;27.90;36.50
4097;DHT22;2062;50.694;7.246;2022-08-04T04:43:08;27.90;36.50
4097;DHT22;2062;50.694;7.246;2022-08-04T04:45:41;27.90;36.60
4097;DHT22;2062;50.694;7.246;2022-08-04T04:48:17;27.90;36.50
4097;DHT22;2062;50.694;7.246;2022-08-04T04:50:55;27.90;37.20
4097;DHT22;2062;50.694;7.246;2022-08-04T04:53:28;27.90;36.50
4097;DHT22;2062;50.694;7.246;2022-08-04T04:56:02;27.90;36.50
4097;DHT22;2062;50.694;7.246;2022-08-04T04:58:33;27.90;36.40
4097;DHT22;2062;50.694;7.246;2022-08-04T05:01:15;27.90;36.40
4097;DHT22;2062;50.694;7.246;2022-08-04T05:04:04;27.90;36.40
4097;DHT22;2062;50.694;7.246;2022-08-04T05:06:51;27.90;36.40
4097;DHT22;2062;50.694;7.246;2022-08-04T05:09:31;27.90;36.10
4097;DHT22;2062;50.694;7.246;2022-08-04T05:12:29;27.90;36.00
4097;DHT22;2062;50.694;7.246;2022-08-04T05:15:03;27.90;35.90
4097;DHT22;2062;50.694;7.246;2022-08-04T05:17:35;27.90;36.00
4097;DHT22;2062;50.694;7.246;2022-08-04T05:20:06;27.90;35.90
4097;DHT22;2062;50.694;7.246;2022-08-04T05:22:39;27.90;35.90
4097;DHT22;2062;50.694;7.246;2022-08-04T05:25:13;27.90;35.90
4097;DHT22;2062;50.694;7.246;2022-08-04T05:27:45;27.90;35.90
4097;DHT22;2062;50.694;7.246;2022-08-04T05:30:16;28.00;36.20
4097;DHT22;2062;50.694;7.246;2022-08-04T05:32:47;28.10;36.80
4097;DHT22;2062;50.694;7.246;2022-08-04T05:35:20;28.10;36.00
4097;DHT22;2062;50.694;7.246;2022-08-04T05:37:50;28.30;35.60
4097;DHT22;2062;50.694;7.246;2022-08-04T05:40:19;28.50;35.30
4097;DHT22;2062;50.694;7.246;2022-08-04T05:42:46;28.60;35.00
4097;DHT22;2062;50.694;7.246;2022-08-04T05:45:14;28.70;34.60
4097;DHT22;2062;50.694;7.246;2022-08-04T05:47:42;28.90;34.40
4097;DHT22;2062;50.694;7.246;2022-08-04T05:50:09;29.10;34.70
4097;DHT22;2062;50.694;7.246;2022-08-04T05:52:37;29.20;34.30
4097;DHT22;2062;50.694;7.246;2022-08-04T05:55:07;29.30;34.10
4097;DHT22;2062;50.694;7.246;2022-08-04T05:57:38;29.20;34.10
4097;DHT22;2062;50.694;7.246;2022-08-04T06:00:07;29.10;34.20
4097;DHT22;2062;50.694;7.246;2022-08-04T06:02:35;29.00;34.20
4097;DHT22;2062;50.694;7.246;2022-08-04T06:05:04;29.00;34.30
4097;DHT22;2062;50.694;7.246;2022-08-04T06:07:32;28.90;33.90
4097;DHT22;2062;50.694;7.246;2022-08-04T06:09:59;28.80;34.00
4097;DHT22;2062;50.694;7.246;2022-08-04T06:12:33;28.70;34.70
4097;DHT22;2062;50.694;7.246;2022-08-04T06:15:02;28.60;34.10
4097;DHT22;2062;50.694;7.246;2022-08-04T06:17:32;28.60;34.40
4097;DHT22;2062;50.694;7.246;2022-08-04T06:20:00;28.50;34.60
4097;DHT22;2062;50.694;7.246;2022-08-04T06:22:29;28.50;34.70
4097;DHT22;2062;50.694;7.246;2022-08-04T06:24:59;28.40;34.90
4097;DHT22;2062;50.694;7.246;2022-08-04T06:27:29;28.40;35.10
4097;DHT22;2062;50.694;7.246;2022-08-04T06:29:57;28.40;35.20
4097;DHT22;2062;50.694;7.246;2022-08-04T06:32:25;28.30;35.30
4097;DHT22;2062;50.694;7.246;2022-08-04T06:35:03;28.30;35.40
4097;DHT22;2062;50.694;7.246;2022-08-04T06:37:35;28.30;35.50
4097;DHT22;2062;50.694;7.246;2022-08-04T06:40:07;28.30;35.70
4097;DHT22;2062;50.694;7.246;2022-08-04T06:42:36;28.30;35.80
4097;DHT22;2062;50.694;7.246;2022-08-04T06:45:05;28.30;35.80
4097;DHT22;2062;50.694;7.246;2022-08-04T06:47:33;28.30;35.70
4097;DHT22;2062;50.694;7.246;2022-08-04T06:50:04;28.30;35.70
4097;DHT22;2062;50.694;7.246;2022-08-04T06:52:31;28.20;35.70
4097;DHT22;2062;50.694;7.246;2022-08-04T06:54:58;28.20;35.70
4097;DHT22;2062;50.694;7.246;2022-08-04T06:57:27;28.20;35.70
4097;DHT22;2062;50.694;7.246;2022-08-04T06:59:59;28.20;35.70
4097;DHT22;2062;50.694;7.246;2022-08-04T07:02:29;28.20;35.80
4097;DHT22;2062;50.694;7.246;2022-08-04T07:04:57;28.20;35.90
4097;DHT22;2062;50.694;7.246;2022-08-04T07:07:24;28.20;36.00
4097;DHT22;2062;50.694;7.246;2022-08-04T07:09:52;28.20;36.10
4097;DHT22;2062;50.694;7.246;2022-08-04T07:12:19;28.20;36.10
4097;DHT22;2062;50.694;7.246;2022-08-04T07:14:47;28.20;36.10
4097;DHT22;2062;50.694;7.246;2022-08-04T07:17:17;28.20;36.20
4097;DHT22;2062;50.694;7.246;2022-08-04T07:19:46;28.20;36.20
4097;DHT22;2062;50.694;7.246;2022-08-04T07:22:14;28.20;36.20
4097;DHT22;2062;50.694;7.246;2022-08-04T07:24:41;28.20;36.30
4097;DHT22;2062;50.694;7.246;2022-08-04T07:27:08;28.20;36.40
4097;DHT22;2062;50.694;7.246;2022-08-04T07:29:36;28.20;36.40
4097;DHT22;2062;50.694;7.246;2022-08-04T07:32:03;28.20;36.30
4097;DHT22;2062;50.694;7.246;2022-08-04T07:34:32;28.20;36.50
4097;DHT22;2062;50.694;7.246;2022-08-04T07:37:00;28.20;36.50
4097;DHT22;2062;50.694;7.246;2022-08-04T07:39:28;28.20;36.60
4097;DHT22;2062;50.694;7.246;2022-08-04T07:41:58;28.20;36.70
4097;DHT22;2062;50.694;7.246;2022-08-04T07:44:25;28.20;36.70
4097;DHT22;2062;50.694;7.246;2022-08-04T07:46:53;28.20;36.70
4097;DHT22;2062;50.694;7.246;2022-08-04T07:49:20;28.20;36.70
4097;DHT22;2062;50.694;7.246;2022-08-04T07:51:48;28.20;36.50
4097;DHT22;2062;50.694;7.246;2022-08-04T07:54:16;28.30;36.50
4097;DHT22;2062;50.694;7.246;2022-08-04T07:56:44;28.30;36.40
4097;DHT22;2062;50.694;7.246;2022-08-04T07:59:13;28.30;36.40
4097;DHT22;2062;50.694;7.246;2022-08-04T08:01:40;28.30;36.50
4097;DHT22;2062;50.694;7.246;2022-08-04T08:04:09;28.30;36.40
4097;DHT22;2062;50.694;7.246;2022-08-04T08:06:37;28.30;36.50
4097;DHT22;2062;50.694;7.246;2022-08-04T08:09:10;28.30;36.80
4097;DHT22;2062;50.694;7.246;2022-08-04T08:11:38;28.30;36.90
4097;DHT22;2062;50.694;7.246;2022-08-04T08:14:05;28.30;36.80
4097;DHT22;2062;50.694;7.246;2022-08-04T08:16:34;28.30;36.90
4097;DHT22;2062;50.694;7.246;2022-08-04T08:19:01;28.30;37.00
4097;DHT22;2062;50.694;7.246;2022-08-04T08:21:28;28.30;36.80
4097;DHT22;2062;50.694;7.246;2022-08-04T08:23:56;28.30;37.20
4097;DHT22;2062;50.694;7.246;2022-08-04T08:26:24;28.30;36.90
4097;DHT22;2062;50.694;7.246;2022-08-04T08:28:51;28.30;36.50
4097;DHT22;2062;50.694;7.246;2022-08-04T08:31:18;28.30;37.10
4097;DHT22;2062;50.694;7.246;2022-08-04T08:33:46;28.30;36.20
4097;DHT22;2062;50.694;7.246;2022-08-04T08:36:20;28.30;35.90
4097;DHT22;2062;50.694;7.246;2022-08-04T08:39:01;28.30;36.00
4097;DHT22;2062;50.694;7.246;2022-08-04T08:44:40;28.30;36.30
4097;DHT22;2062;50.694;7.246;2022-08-04T08:47:23;28.30;36.40
4097;DHT22;2062;50.694;7.246;2022-08-04T08:50:14;28.30;36.10
4097;DHT22;2062;50.694;7.246;2022-08-04T08:53:10;28.30;35.90
4097;DHT22;2062;50.694;7.246;2022-08-04T08:55:48;28.30;35.80
4097;DHT22;2062;50.694;7.246;2022-08-04T08:58:37;28.30;36.70
4097;DHT22;2062;50.694;7.246;2022-08-04T09:01:15;28.30;36.10
4097;DHT22;2062;50.694;7.246;2022-08-04T09:04:08;28.30;36.00
4097;DHT22;2062;50.694;7.246;2022-08-04T09:06:53;28.30;36.00
4097;DHT22;2062;50.694;7.246;2022-08-04T09:09:41;28.30;36.10
4097;DHT22;2062;50.694;7.246;2022-08-04T09:12:23;28.30;36.40
4097;DHT22;2062;50.694;7.246;2022-08-04T09:14:54;28.30;36.60
4097;DHT22;2062;50.694;7.246;2022-08-04T09:17:28;28.30;36.70
4097;DHT22;2062;50.694;7.246;2022-08-04T09:19:59;28.30;36.60
4097;DHT22;2062;50.694;7.246;2022-08-04T09:22:34;28.30;36.60
4097;DHT22;2062;50.694;7.246;2022-08-04T09:25:10;28.30;37.10
4097;DHT22;2062;50.694;7.246;2022-08-04T09:27:44;28.30;36.30
4097;DHT22;2062;50.694;7.246;2022-08-04T09:30:16;28.30;36.60
4097;DHT22;2062;50.694;7.246;2022-08-04T09:32:52;28.30;36.50
4097;DHT22;2062;50.694;7.246;2022-08-04T09:35:28;28.40;36.80
4097;DHT22;2062;50.694;7.246;2022-08-04T09:38:07;28.40;36.80
4097;DHT22;2062;50.694;7.246;2022-08-04T09:40:42;28.40;36.50
4097;DHT22;2062;50.694;7.246;2022-08-04T09:43:19;28.40;36.50
4097;DHT22;2062;50.694;7.246;2022-08-04T09:46:00;28.40;36.50
4097;DHT22;2062;50.694;7.246;2022-08-04T09:48:41;28.40;36.40
4097;DHT22;2062;50.694;7.246;2022-08-04T09:51:16;28.40;36.40
4097;DHT22;2062;50.694;7.246;2022-08-04T09:53:53;28.40;37.30
4097;DHT22;2062;50.694;7.246;2022-08-04T09:56:25;28.40;36.60
4097;DHT22;2062;50.694;7.246;2022-08-04T09:59:03;28.40;36.70
4097;DHT22;2062;50.694;7.246;2022-08-04T10:01:36;28.50;36.70
4097;DHT22;2062;50.694;7.246;2022-08-04T10:04:08;28.50;36.70
4097;DHT22;2062;50.694;7.246;2022-08-04T10:07:02;28.40;36.60
4097;DHT22;2062;50.694;7.246;2022-08-04T10:09:43;28.40;36.60
4097;DHT22;2062;50.694;7.246;2022-08-04T10:12:28;28.50;36.60
4097;DHT22;2062;50.694;7.246;2022-08-04T10:15:05;28.50;36.60
4097;DHT22;2062;50.694;7.246;2022-08-04T10:17:51;28.50;36.70
4097;DHT22;2062;50.694;7.246;2022-08-04T10:20:41;28.50;36.60
4097;DHT22;2062;50.694;7.246;2022-08-04T10:23:18;28.50;36.60
4097;DHT22;2062;50.694;7.246;2022-08-04T10:25:56;28.50;36.70
4097;DHT22;2062;50.694;7.246;2022-08-04T10:28:27;28.50;36.80
4097;DHT22;2062;50.694;7.246;2022-08-04T10:30:59;28.50;36.90
4097;DHT22;2062;50.694;7.246;2022-08-04T10:33:32;28.50;36.80
4097;DHT22;2062;50.694;7.246;2022-08-04T10:36:03;28.50;36.80
4097;DHT22;2062;50.694;7.246;2022-08-04T10:38:35;28.50;36.80
4097;DHT22;2062;50.694;7.246;2022-08-04T10:41:09;28.50;36.80
4097;DHT22;2062;50.694;7.246;2022-08-04T10:43:43;28.50;36.90
4097;DHT22;2062;50.694;7.246;2022-08-04T10:46:15;28.60;36.90
4097;DHT22;2062;50.694;7.246;2022-08-04T10:48:59;28.50;36.90
4097;DHT22;2062;50.694;7.246;2022-08-04T10:51:34;28.60;37.10
4097;DHT22;2062;50.694;7.246;2022-08-04T10:54:05;28.60;37.00
4097;DHT22;2062;50.694;7.246;2022-08-04T10:56:36;28.60;36.90
4097;DHT22;2062;50.694;7.246;2022-08-04T10:59:09;28.60;36.90
4097;DHT22;2062;50.694;7.246;2022-08-04T11:01:41;28.60;37.00
4097;DHT22;2062;50.694;7.246;2022-08-04T11:04:17;28.60;37.00
4097;DHT22;2062;50.694;7.246;2022-08-04T11:06:48;28.60;37.00
4097;DHT22;2062;50.694;7.246;2022-08-04T11:09:17;28.60;37.00
4097;DHT22;2062;50.694;7.246;2022-08-04T11:11:50;28.60;37.10
4097;DHT22;2062;50.694;7.246;2022-08-04T11:14:23;28.70;37.20
4097;DHT22;2062;50.694;7.246;2022-08-04T11:16:56;28.70;38.00
4097;DHT22;2062;50.694;7.246;2022-08-04T11:19:30;28.70;37.20
4097;DHT22;2062;50.694;7.246;2022-08-04T11:22:02;28.70;37.20
4097;DHT22;2062;50.694;7.246;2022-08-04T11:24:36;28.70;37.10
4097;DHT22;2062;50.694;7.246;2022-08-04T11:27:10;28.70;37.10
4097;DHT22;2062;50.694;7.246;2022-08-04T11:29:44;28.70;37.10
4097;DHT22;2062;50.694;7.246;2022-08-04T11:32:17;28.70;37.20
4097;DHT22;2062;50.694;7.246;2022-08-04T11:34:50;28.70;37.20
4097;DHT22;2062;50.694;7.246;2022-08-04T11:37:22;28.70;37.20
4097;DHT22;2062;50.694;7.246;2022-08-04T11:39:52;28.70;37.20
4097;DHT22;2062;50.694;7.246;2022-08-04T11:42:26;28.70;37.30
4097;DHT22;2062;50.694;7.246;2022-08-04T11:44:59;28.70;37.50
4097;DHT22;2062;50.694;7.246;2022-08-04T11:47:31;28.70;37.60
4097;DHT22;2062;50.694;7.246;2022-08-04T11:50:04;28.70;37.70
4097;DHT22;2062;50.694;7.246;2022-08-04T11:52:34;28.70;37.60
4097;DHT22;2062;50.694;7.246;2022-08-04T11:55:06;28.70;37.70
4097;DHT22;2062;50.694;7.246;2022-08-04T11:57:34;28.70;37.60
4097;DHT22;2062;50.694;7.246;2022-08-04T12:00:04;28.70;37.60
4097;DHT22;2062;50.694;7.246;2022-08-04T12:02:57;28.70;37.60
4097;DHT22;2062;50.694;7.246;2022-08-04T12:05:30;28.70;37.90
4097;DHT22;2062;50.694;7.246;2022-08-04T12:08:06;28.70;38.00
4097;DHT22;2062;50.694;7.246;2022-08-04T12:10:44;28.80;38.20
4097;DHT22;2062;50.694;7.246;2022-08-04T12:13:21;28.70;38.00
4097;DHT22;2062;50.694;7.246;2022-08-04T12:16:00;28.80;37.80
4097;DHT22;2062;50.694;7.246;2022-08-04T12:18:33;28.80;37.80
4097;DHT22;2062;50.694;7.246;2022-08-04T12:21:06;28.80;37.70
4097;DHT22;2062;50.694;7.246;2022-08-04T12:23:38;28.80;37.70
4097;DHT22;2062;50.694;7.246;2022-08-04T12:26:08;28.80;37.70
4097;DHT22;2062;50.694;7.246;2022-08-04T12:28:38;28.80;37.70
4097;DHT22;2062;50.694;7.246;2022-08-04T12:31:11;28.80;38.40
4097;DHT22;2062;50.694;7.246;2022-08-04T12:33:46;28.80;37.90
4097;DHT22;2062;50.694;7.246;2022-08-04T12:36:20;28.80;37.90
4097;DHT22;2062;50.694;7.246;2022-08-04T12:38:53;28.80;37.90
4097;DHT22;2062;50.694;7.246;2022-08-04T12:41:27;28.80;37.80
4097;DHT22;2062;50.694;7.246;2022-08-04T12:44:03;28.80;37.90
4097;DHT22;2062;50.694;7.246;2022-08-04T12:46:31;28.80;37.90
4097;DHT22;2062;50.694;7.246;2022-08-04T12:49:02;28.80;37.90
4097;DHT22;2062;50.694;7.246;2022-08-04T12:51:36;28.80;38.60
4097;DHT22;2062;50.694;7.246;2022-08-04T12:54:04;28.80;37.90
4097;DHT22;2062;50.694;7.246;2022-08-04T12:56:32;28.80;38.10
4097;DHT22;2062;50.694;7.246;2022-08-04T12:59:02;28.80;38.10
4097;DHT22;2062;50.694;7.246;2022-08-04T13:01:29;28.80;38.20
4097;DHT22;2062;50.694;7.246;2022-08-04T13:03:59;28.80;38.30
4097;DHT22;2062;50.694;7.246;2022-08-04T13:06:29;28.80;38.20
4097;DHT22;2062;50.694;7.246;2022-08-04T13:09:05;28.90;38.10
4097;DHT22;2062;50.694;7.246;2022-08-04T13:11:35;28.90;38.10
4097;DHT22;2062;50.694;7.246;2022-08-04T13:14:03;28.90;38.00
4097;DHT22;2062;50.694;7.246;2022-08-04T13:16:32;28.90;38.20
4097;DHT22;2062;50.694;7.246;2022-08-04T13:19:00;28.90;38.00
4097;DHT22;2062;50.694;7.246;2022-08-04T13:21:29;28.90;38.00
4097;DHT22;2062;50.694;7.246;2022-08-04T13:23:57;28.90;38.00
4097;DHT22;2062;50.694;7.246;2022-08-04T13:26:30;28.90;38.00
4097;DHT22;2062;50.694;7.246;2022-08-04T13:29:02;28.90;38.00
4097;DHT22;2062;50.694;7.246;2022-08-04T13:31:32;28.90;38.00
4097;DHT22;2062;50.694;7.246;2022-08-04T13:34:05;28.90;38.10
4097;DHT22;2062;50.694;7.246;2022-08-04T13:36:34;28.90;38.00
4097;DHT22;2062;50.694;7.246;2022-08-04T13:39:05;28.90;37.90
4097;DHT22;2062;50.694;7.246;2022-08-04T13:41:38;28.90;38.00
4097;DHT22;2062;50.694;7.246;2022-08-04T13:44:06;28.90;38.00
4097;DHT22;2062;50.694;7.246;2022-08-04T13:46:39;28.90;37.90
4097;DHT22;2062;50.694;7.246;2022-08-04T13:49:09;28.90;38.50
4097;DHT22;2062;50.694;7.246;2022-08-04T13:51:37;28.90;37.90
4097;DHT22;2062;50.694;7.246;2022-08-04T13:54:05;28.90;37.80
4097;DHT22;2062;50.694;7.246;2022-08-04T13:56:38;28.90;38.00
4097;DHT22;2062;50.694;7.246;2022-08-04T13:59:10;28.90;37.90
4097;DHT22;2062;50.694;7.246;2022-08-04T14:01:42;28.90;37.90
4097;DHT22;2062;50.694;7.246;2022-08-04T14:04:14;29.00;38.30
4097;DHT22;2062;50.694;7.246;2022-08-04T14:06:49;28.90;38.50
4097;DHT22;2062;50.694;7.246;2022-08-04T14:09:19;28.90;37.80
4097;DHT22;2062;50.694;7.246;2022-08-04T14:11:50;29.00;38.30
4097;DHT22;2062;50.694;7.246;2022-08-04T14:14:20;29.00;38.30
4097;DHT22;2062;50.694;7.246;2022-08-04T14:16:56;28.90;37.80
4097;DHT22;2062;50.694;7.246;2022-08-04T14:19:25;28.90;37.80
4097;DHT22;2062;50.694;7.246;2022-08-04T14:21:52;29.00;38.30
4097;DHT22;2062;50.694;7.246;2022-08-04T14:24:23;28.90;37.80
4097;DHT22;2062;50.694;7.246;2022-08-04T14:26:52;29.00;38.40
4097;DHT22;2062;50.694;7.246;2022-08-04T14:29:24;28.90;37.90
4097;DHT22;2062;50.694;7.246;2022-08-04T14:31:59;28.90;37.80
4097;DHT22;2062;50.694;7.246;2022-08-04T14:34:28;29.00;38.30
4097;DHT22;2062;50.694;7.246;2022-08-04T14:36:56;28.90;37.80
4097;DHT22;2062;50.694;7.246;2022-08-04T14:39:38;29.00;38.30
4097;DHT22;2062;50.694;7.246;2022-08-04T14:42:07;29.00;38.40
4097;DHT22;2062;50.694;7.246;2022-08-04T14:44:53;29.00;38.30
4097;DHT22;2062;50.694;7.246;2022-08-04T14:47:39;29.00;38.40
4097;DHT22;2062;50.694;7.246;2022-08-04T14:50:08;29.00;38.50
4097;DHT22;2062;50.694;7.246;2022-08-04T14:52:35;29.00;38.40
4097;DHT22;2062;50.694;7.246;2022-08-04T14:55:23;29.00;39.00
4097;DHT22;2062;50.694;7.246;2022-08-04T14:57:52;28.90;37.80
4097;DHT22;2062;50.694;7.246;2022-08-04T15:00:24;28.90;37.80
4097;DHT22;2062;50.694;7.246;2022-08-04T15:02:53;28.90;37.90
4097;DHT22;2062;50.694;7.246;2022-08-04T15:05:20;29.00;38.30
4097;DHT22;2062;50.694;7.246;2022-08-04T15:07:48;28.90;37.90
4097;DHT22;2062;50.694;7.246;2022-08-04T15:10:16;29.00;38.60
4097;DHT22;2062;50.694;7.246;2022-08-04T15:12:43;29.00;38.60
4097;DHT22;2062;50.694;7.246;2022-08-04T15:15:12;29.00;38.80
4097;DHT22;2062;50.694;7.246;2022-08-04T15:17:39;29.00;38.70
4097;DHT22;2062;50.694;7.246;2022-08-04T15:20:08;29.10;39.00
4097;DHT22;2062;50.694;7.246;2022-08-04T15:22:35;29.00;39.10
4097;DHT22;2062;50.694;7.246;2022-08-04T15:25:03;29.10;39.10
4097;DHT22;2062;50.694;7.246;2022-08-04T15:27:33;29.10;39.20
4097;DHT22;2062;50.694;7.246;2022-08-04T15:30:04;29.10;39.10
4097;DHT22;2062;50.694;7.246;2022-08-04T15:32:34;29.10;39.00
4097;DHT22;2062;50.694;7.246;2022-08-04T15:35:04;29.00;38.80
4097;DHT22;2062;50.694;7.246;2022-08-04T15:37:45;29.10;38.80
4097;DHT22;2062;50.694;7.246;2022-08-04T15:40:18;29.10;38.80
4097;DHT22;2062;50.694;7.246;2022-08-04T15:42:58;29.10;38.80
4097;DHT22;2062;50.694;7.246;2022-08-04T15:45:29;29.10;38.90
4097;DHT22;2062;50.694;7.246;2022-08-04T15:48:32;29.10;39.00
4097;DHT22;2062;50.694;7.246;2022-08-04T15:51:02;29.10;39.00
4097;DHT22;2062;50.694;7.246;2022-08-04T15:53:31;29.10;39.00
4097;DHT22;2062;50.694;7.246;2022-08-04T15:55:58;29.10;39.70
4097;DHT22;2062;50.694;7.246;2022-08-04T15:58:25;29.10;39.10
4097;DHT22;2062;50.694;7.246;2022-08-04T16:01:14;29.10;39.10
4097;DHT22;2062;50.694;7.246;2022-08-04T16:03:44;29.10;39.20
4097;DHT22;2062;50.694;7.246;2022-08-04T16:09:25;29.10;39.10
4097;DHT22;2062;50.694;7.246;2022-08-04T16:11:52;29.10;39.10
4097;DHT22;2062;50.694;7.246;2022-08-04T16:14:34;29.10;39.90
4097;DHT22;2062;50.694;7.246;2022-08-04T16:17:15;29.10;39.30
4097;DHT22;2062;50.694;7.246;2022-08-04T16:20:07;29.10;39.40
4097;DHT22;2062;50.694;7.246;2022-08-04T16:22:38;29.10;39.50
4097;DHT22;2062;50.694;7.246;2022-08-04T16:25:07;29.10;39.50
4097;DHT22;2062;50.694;7.246;2022-08-04T16:27:36;29.20;39.60
4097;DHT22;2062;50.694;7.246;2022-08-04T16:30:03;29.20;39.60
4097;DHT22;2062;50.694;7.246;2022-08-04T16:32:38;29.20;39.50
4097;DHT22;2062;50.694;7.246;2022-08-04T16:35:20;29.10;39.50
4097;DHT22;2062;50.694;7.246;2022-08-04T16:37:51;29.20;39.40
4097;DHT22;2062;50.694;7.246;2022-08-04T16:40:32;29.20;39.50
4097;DHT22;2062;50.694;7.246;2022-08-04T16:43:05;29.20;39.50
4097;DHT22;2062;50.694;7.246;2022-08-04T16:45:42;29.20;39.70
4097;DHT22;2062;50.694;7.246;2022-08-04T16:48:09;29.20;39.70
4097;DHT22;2062;50.694;7.246;2022-08-04T16:50:52;29.20;39.50
4097;DHT22;2062;50.694;7.246;2022-08-04T16:53:22;29.20;39.60
4097;DHT22;2062;50.694;7.246;2022-08-04T16:55:51;29.30;39.50
4097;DHT22;2062;50.694;7.246;2022-08-04T16:58:25;29.20;39.70
4097;DHT22;2062;50.694;7.246;2022-08-04T17:00:52;29.20;39.50
4097;DHT22;2062;50.694;7.246;2022-08-04T17:03:20;29.20;39.40
4097;DHT22;2062;50.694;7.246;2022-08-04T17:05:48;29.20;39.60
4097;DHT22;2062;50.694;7.246;2022-08-04T17:08:15;29.20;39.60
4097;DHT22;2062;50.694;7.246;2022-08-04T17:10:46;29.20;39.50
4097;DHT22;2062;50.694;7.246;2022-08-04T17:13:25;29.20;39.70
4097;DHT22;2062;50.694;7.246;2022-08-04T17:15:53;29.20;39.80